Timeline UpdatesTrip UpdatesNews PostsPvt PostsTravel TipsAdmin PostsConv PostsFollowed PostsChat RequestsBlog PostsPNR Posts

Disclaimer
Search
 
 
Wed Jul 23, 2014 11:17:03 ISTHomeTrainsΣChainsAtlasPNRForumGalleryNewsFAQTripsMembersLoginFeedback
No Recent News for this Train
Other Trains in the News **new
Latest...
⇐ Return Journey: Train# 51824

51823/Allahabad Farukhabad Passenger (UnReserved)

Sep 11 2013 (1:47PM)
Change Departure Station:
Change Arrival Station:
Post a Train Travel TipPost a Train Travel Tip **new
Post a Comment/Question/Picture/VideoPost a Comment/Question/Picture/Video
Pantry/Catering
✕ NO Pantry Car
✕ NO Catering
RSA - Rake Sharing
Rake/Coach Composition
Loco
News    PNR    Forum    Time-Table    Availability    Fare Chart    Map    Arr/Dep History    Trips    Gallery    ΣChains    X/O    Timeline    
Travel Time: 2h 56m    19 halts    Distance: 133 km    Avg Speed: 45 km/hr
Type: Passenger
Zone: NCR/North Central
Departs @ 07:00
Platform# 8
SMTWTFS
Allahabad Junction/ALD 
Arrives @ 09:56
Platform# ???
SMTWTFS
Malwan/MWH 

19 halts. 19 intermediate Stations between Allahabad Junction and Malwan

Show ALL intermediate Stations  Show Old Time-Table

#CodeStation NameX/OArrivesAvgDepartsAvgHaltPFDay#KmSpeedElevZoneAddress
1ALD»Allahabad Junction (10)»  -07:00-810.028100mNCRAllahabad 211003, Uttar Pradesh
2SFGSubedarGanj (3)X  07:08-07:09-1m--13.750100mNCRAllahabad, Uttar Pradesh
3BMUBamhrauliX  07:15-07:16-1m--18.856102mNCRAllahabad, Uttar Pradesh
4MREManauri  07:25-07:26-1m--117.246105mNCRSabderganj-Fatehpur Rd, Uttar Pradesh
5SYWNSaiyid Sarawan  07:32-07:33-1m--121.856106mNCR212203 ?, Uttar Pradesh
6MNJManoharGanj  07:41-07:42-1m--129.252104mNCRNational Highway 2, Uttar Pradesh
7BREBharwariX  07:51-07:52-1m--137.135108mNCRBharwari, Uttar Pradesh
8BDNPBidanpur  07:59-08:00-1m--141.154106mNCRBidanpur, Uttar Pradesh
9SJTShujaatpurXO  08:07-08:08-1m--147.466107mNCRNational Highway 2, Uttar Pradesh
10SROSirathu (2)  08:17-08:18-1m1157.248109mNCRSirathu, Uttar Pradesh
11ASCEAthsaraiX  08:26-08:27-1m--163.654107mNCRAthsarai, Uttar Pradesh
12KUWKanwarO  08:33-08:34-1m--169.152110mNCRNational Highway 2, Uttar Pradesh
13KTCEKatoghan  08:41-08:42-1m--175.152109mNCRNational Highway 2, Uttar Pradesh
14KGAKhaga (3)  08:50-08:51-1m--182.064114mNCRFatehpur, Uttar Pradesh
15SNIESath NarainiX  08:58-08:59-1m--189.547114mNCRNational Highway 2, Uttar Pradesh
16RUBRasulabad  09:08-09:09-1m--196.661118mNCRRasulabad, Uttar Pradesh
17FYZFaizullapur  09:18-09:19-1m--1105.751115mNCRFaizullapur, Uttar Pradesh
18RAMARamva  09:25-09:26-1m--1110.839116mNCRforcing detours between Kanpur and Varanasi, Uttar Pradesh
19FTPFatehpur (3)  09:35-09:40-5m--1116.770120mNCRFatehpur, Uttar Pradesh
20KKSKurasti Kalan  09:46-09:47-1m--1123.861119mNCRJoniha Rd, Uttar Pradesh
21MWH•Malwan (2)•  09:56-09:57-1m--1132.862122mNCRFatehpur, Uttar Pradesh
22KSQKanspur Gugauli  10:04-10:05-1m--1140.060124mNCRNational Highway 2, Uttar Pradesh
23BKOBindki Road  10:13-10:14-1m--1148.039124mNCRFatehpur, Uttar Pradesh
24AUNGAung  10:23-10:24-1m--1153.955123mNCRNational Highway 2, Uttar Pradesh
25KBNKarbigwan  10:31-10:32-1m--1160.353121mNCRFatehpur, Uttar Pradesh
26PMPRPrempur  10:38-10:39-1m--1165.653125mNCRNational Highway 2, Uttar Pradesh
27SSLSirsaul (1)  10:46-10:47-1m11171.866125mNCRKANPUR-209 402, Uttar Pradesh
28RXMRooma (2)  10:53-10:55-2m--1178.455125mNCRKANPUR-208 008, Uttar Pradesh
29CHKChakeri (2)X  11:00-11:02-2m--1182.946126mNCRKANPUR-208 008, Uttar Pradesh
30CNBIChandari (2)XO  11:11-11:12-1m--1189.85125mNCRKanpur Cantt, Uttar Pradesh
31CNBKanpur Central (10)XO  12:05-12:38-33m--1194.329128mNCRKANPUR-208 001, Uttar Pradesh
32CPAKanpur Anwarganj (3)  12:43-12:48-5m--1196.826130mNERKANPUR-208 003, Uttar Pradesh
33RPORawatpur (1)  12:58-12:59-1m11201.044131mNERKANPUR-208 025, Uttar Pradesh
34KAPKalianpur (1)  13:06-13:07-1m11206.258133mNERKANPUR-208 017, Uttar Pradesh
35MDAMandhana Junction (1)X  13:14-13:16-2m11213.021132mNERKANPUR-209 217, Uttar Pradesh
36CBRChaubepurX  13:30-13:31-1m--1217.874133mNERKANPUR-209 203, Uttar Pradesh
37BJRBarrajpur  13:41-13:42-1m--1230.256132mNERShivarajpur, Uttar Pradesh
38UTPUtripura  13:50-13:51-1m--1237.760136mNERNH 91, Uttar Pradesh
39DUODhaursalar  13:57-13:58-1m--1243.749137mNERNational Highway 91, Uttar Pradesh
40BLUBilhaur  14:05-14:06-1m--1249.446134mNERKANPUR-209 202, Uttar Pradesh
41BKTSBakothikhas  14:13-14:14-1m--1254.958136mNERAraul, Uttar Pradesh
42ARLAroul  14:19-14:20-1m--1259.751142mNERAraul, Uttar Pradesh
43GWPGangawapur Halt  14:26-14:27-1m--1264.745141mNERAraul, Uttar Pradesh
44MNMUMani MauX  14:33-14:34-1m--1269.267141mNERNational Highway 91, Uttar Pradesh
45KJNKannauj  14:39-14:41-2m--1274.815144mNERKannauj, Uttar Pradesh
46KJNCKannauj City  14:49-14:50-1m--1276.887144mNERKannauj, Uttar Pradesh
47JPPJalalpur Panwara  14:55-14:56-1m--1284.013140mNERNational Highway 91, Uttar Pradesh
48JDAJasodaX  15:11-15:13-2m--1287.220144mNERNational Highway 91, Uttar Pradesh
49KHDPKhudlapur  15:25-15:26-1m--1291.249147mNERNational Highway 91, Uttar Pradesh
50GHJGursahaiGanj  15:33-15:34-1m--1296.955146mNERGursahaiganj, Uttar Pradesh
51MLKPMalikpurX  15:41-15:42-1m--1303.3937mNERMalancha-Mallickpur Raod, Uttar Pradesh
52KDJKhudaganj  15:48-15:49-1m--1312.633149mNERState Highway 29A, Uttar Pradesh
53SGRPSinghirampurO  15:56-15:57-1m--1316.49154mNERSH 29A, Uttar Pradesh
54KLJKamalGanj  16:20-16:22-2m--1319.930145mNERKamalganj, Uttar Pradesh
55YAGYaqutganj  16:30-16:31-1m--1324.048150mNERK. V. RRC, Uttar Pradesh
56FGRFatehgarh  16:37-16:38-1m--1328.810152mNERFatehgarh, Uttar Pradesh
57FBDFarrukhabad Junction (5)  17:10----1334.0-151mNERFarrukhabad, Uttar Pradesh
Scroll to Top
Scroll to Bottom